Sand Spring Valley, Nevada Weather observations

Data are for 10 minute period ending at time listed.
 Day   Time   Solar   Ave.   Ave.  Ave.  Vector  Max.   Baro.   Total    
  of    of     Rad.   Air    Rel.  Wind   Wind   Wind  Press.  Precip.   
Year   Day            Temp.  Hum.  Speed  Dir.   Gust                    
2017   (PST)  Kw/m2    F      %     mph   deg.    mph    mb.     in.     
-------------------------------------------------------------------------
 173   17:00   0.00   92.4    15    1.2   206     2.8   848.6    0.00 
 173   17:10   0.00   91.8    13    2.4   163     3.1   848.6    0.00 
 173   17:20   0.00   91.9    20    1.0   158     3.1   848.6    0.00 
 173   17:30   0.00   89.8    29    5.1   202    10.7   848.7    0.00 
 173   17:40   0.00   87.1    23    7.5   213    12.5   848.7    0.00 
 173   17:50   0.00   87.7    24    6.1   215    10.5   848.7    0.00 
 173   18:00   0.00   87.0    24    6.7   208     8.6   848.7    0.00 
 173   18:10   0.00   89.1    16    7.8   188    14.0   848.8    0.00 
 173   18:20   0.00   86.8    23    6.4   211     8.4   848.8    0.00 
 173   18:30   0.00   82.0    29    7.0   226     7.8   848.9    0.00 
 173   18:40   0.00   81.9    27    6.9   228     8.8   849.1    0.00 
 173   18:50   0.00   82.5    24    5.9   228     7.5   849.2    0.00 
 173   19:00   0.00   84.8    20    4.4   230     7.1   849.3    0.00 
 173   19:10   0.00   84.9    19    3.9   245     6.6   849.4    0.00 
 173   19:20   0.00   81.5    24    4.6   230     6.9   849.5    0.00 
 173   19:30   0.00   83.8    15    4.3   251     6.1   849.5    0.00 
 173   19:40   0.00   81.6    21    4.9   242     7.1   849.6    0.00 
 173   19:50   0.00   75.6    27    6.5   234     7.9   849.7    0.00 
 173   20:00   0.00   79.4    21    7.5   228    10.5   849.9    0.00 
 173   20:10   0.00   78.9    22    7.2   202     8.7   849.9    0.00 
 173   20:20   0.00   74.1    32    6.6   215     7.6   850.0    0.00 
 173   20:30   0.00   73.0    30    6.7   238     7.9   850.0    0.00 
 173   20:40   0.00   75.6    24    7.3   247     9.7   850.2    0.00 
 173   20:50   0.00   74.2    26    7.2   242    10.4   850.2    0.00 
 173   21:00   0.00   74.8    25    7.4   242     9.6   850.3    0.00 
 173   21:10   0.00   74.4    25    6.0   275     8.7   850.6    0.00 
 173   21:20   0.00   74.4    25    7.0   273     9.8   850.6    0.00 
 173   21:30   0.00   75.3    23    5.4   324     8.3   850.7    0.00 
 173   21:40   0.00   75.7    22    6.5   328    12.1   850.9    0.00 
 173   21:50   0.00   78.5    17    8.1     0    13.1   851.3    0.00 
 173   22:00   0.00   80.9    14    6.7    19    15.1   851.6    0.00 
 173   22:10   0.00   79.2    18    6.2    43     8.7   851.7    0.00 
 173   22:20   0.00   78.9    17    2.8    27     7.0   851.8    0.00 
 173   22:30   0.00   81.0    14    6.3    20    10.1   851.8    0.00 
 173   22:40   0.00   79.6    15    4.4    27     8.3   851.9    0.00 
 173   22:50   0.00   77.5    17    3.5     4     5.6   852.1    0.00 
 173   23:00   0.00   74.5    22    0.6   100     4.6   852.3    0.00 
 173   23:10   0.00   73.8    22    0.5   101     2.3   852.3    0.00 
 173   23:20   0.00   75.2    19    3.2    79     4.5   852.3    0.00 
 173   23:30   0.00   71.7    28    3.0   190     7.6   852.4    0.00 
 173   23:40   0.00   67.9    28    4.2   233     6.5   852.4    0.00 
 173   23:50   0.00   66.8    30    3.0   244     4.9   852.4    0.00 
 174    0:00   0.00   67.5    30    2.9   258     5.0   852.3    0.00 
 174    0:10   0.00   64.8    34    3.6   275     5.0   852.3    0.00 
 174    0:20   0.00   68.9    24    4.6   266     6.0   852.3    0.00 
 174    0:30   0.00   63.9    36    4.7   274     6.7   852.4    0.00 
 174    0:40   0.00   66.1    29    3.1   269     6.1   852.5    0.00 
 174    0:50   0.00   63.2    36    5.3   252     8.3   852.6    0.00 
 174    1:00   0.00   62.1    36    3.7   261     5.8   852.6    0.00 
 174    1:10   0.00   64.2    32    5.5   268     6.5   852.6    0.00 
 174    1:20   0.00   65.5    28    5.2   268     6.8   852.7    0.00 
 174    1:30   0.00   67.0    26    5.9   256     6.9   852.7    0.00 
 174    1:40   0.00   66.8    26    3.3   255     5.3   852.7    0.00 
 174    1:50   0.00   66.8    27    3.0   211     4.3   852.7    0.00 
 174    2:00   0.00   65.1    28    2.4   179     3.9   852.7    0.00 
 174    2:10   0.00   63.7    30    3.0   211     4.5   852.7    0.00 
 174    2:20   0.00   63.6    32    2.6   207     3.8   852.7    0.00 
 174    2:30   0.00   63.5    31    4.0   206     4.7   852.7    0.00 
 174    2:40   0.00   61.2    36    4.1   200     5.8   852.8    0.00 
 174    2:50   0.00   59.3    41    5.4   199     6.8   852.9    0.00 
 174    3:00   0.00   57.8    46    5.2   215     6.6   853.0    0.00 
 174    3:10   0.00   58.5    44    4.7   250     6.1   853.0    0.00 
 174    3:20   0.00   63.4    25    3.6   262     4.3   852.9    0.00 
 174    3:30   0.00   60.2    41    3.4   259     5.0   853.1    0.00 
 174    3:40   0.00   55.7    55    4.0   278     5.4   853.1    0.00 
 174    3:50   0.00   59.8    39    3.1   268     4.5   853.1    0.00 
 174    4:00   0.00   61.6    36    5.2   204     6.6   853.3    0.00 
 174    4:10   0.00   57.1    46    4.6   198     5.8   853.5    0.00 
 174    4:20   0.00   56.2    48    3.7   190     5.2   853.5    0.00 
 174    4:30   0.00   56.1    49    4.2   202     5.4   853.5    0.00 
 174    4:40   0.00   55.8    56    2.0   238     3.2   853.5    0.00 
 174    4:50   0.00   56.8    51    1.4   277     3.9   853.6    0.00 
 174    5:00   0.00   58.9    42    3.0   186     4.7   853.8    0.00 
 174    5:10   0.00   56.5    59    3.5   225     4.7   853.8    0.00 
 174    5:20   0.00   58.4    50    3.7   246     5.6   853.9    0.00 
 174    5:30   0.00   61.7    44    4.1   234     5.2   854.1    0.00 
 174    5:40   0.00   61.4    52    3.3   236     4.9   854.2    0.00 
 174    5:50   0.00   64.3    53    1.5   234     3.2   854.4    0.00 
 174    6:00   0.00   66.7    47    2.1   252     3.4   854.6    0.00 
 174    6:10   0.00   67.9    43    4.6   292     6.6   854.7    0.00 
 174    6:20   0.00   67.7    44    4.6   298     6.0   854.8    0.00 
 174    6:30   0.00   69.0    43    4.9   289     6.5   854.9    0.00 
 174    6:40   0.00   70.6    46    3.7   287     5.0   855.0    0.00 
 174    6:50   0.00   72.0    41    4.0   288     5.8   855.1    0.00 
 174    7:00   0.00   74.2    31    3.6   307     6.0   855.2    0.00 
 174    7:10   0.00   77.2    29    1.0   321     3.1   855.3    0.00 
 174    7:20   0.00   80.1    20    0.5     5     2.5   855.3    0.00 
 174    7:30   0.00   81.1    18    1.1    24     4.0   855.4    0.00 
 174    7:40   0.00   81.4    18    0.2    54     1.8   855.4    0.00 
 174    7:50   0.00   82.3    17    0.0    55     0.4   855.4    0.00 
 174    8:00   0.00   81.9    21    1.0    55     2.3   855.4    0.00 
 174    8:10   0.00   81.9    19    0.9    53     2.3   855.3    0.00 
 174    8:20   0.00   82.3    21    1.0    55     2.3   855.1    0.00 
 174    8:30   0.00   82.1    19    0.0    55     0.1   855.1    0.00 
 174    8:40   0.00   82.8    17    1.0   132     4.1   854.9    0.00 
 174    8:50   0.00   84.5    16    0.5   163     3.2   854.9    0.00 
 174    9:00   0.00   83.6    22    2.1   141     3.4   854.8    0.00 
 174    9:10   0.00   85.4    16    0.7    81     3.1   854.8    0.00 
 174    9:20   0.00   86.1    17    2.3   195     4.2   854.6    0.00 
 174    9:30   0.00   85.1    16    3.1   151     5.3   854.5    0.00 
 174    9:40   0.00   86.9    14    1.6   153     4.2   854.4    0.00 
 174    9:50   0.00   87.1    18    2.5   228     4.5   854.3    0.00 
 174   10:00   0.00   88.2    16    1.0   161     3.9   854.2    0.00 
 174   10:10   0.00   89.2    17    1.7   216     4.5   854.1    0.00 
 174   10:20   0.00   89.3    18    2.3   183     3.8   854.1    0.00 
 174   10:30   0.00   89.6    18    1.4   205     2.8   854.1    0.00 
 174   10:40   0.00   89.0    16    1.5    87     5.7   854.0    0.00 
 174   10:50   0.00   90.6    15    0.8   320     3.5   853.9    0.00 
 174   11:00   0.00   89.7    20    2.5   114     4.2   853.9    0.00 
 174   11:10   0.00   89.9    18    2.3   100     5.1   853.8    0.00 
 174   11:20   0.00   88.5    17    3.6   122     6.2   853.7    0.00 
 174   11:30   0.00   89.2    23    3.8   141     6.6   853.7    0.00 
 174   11:40   0.00   88.2    24    4.6   132     5.8   853.7    0.00 
 174   11:50   0.00   88.5    22    4.3   131     6.3   853.5    0.00 
 174   12:00   0.00   91.5    13    2.6   194     5.5   853.5    0.00 
 174   12:10   0.00   92.3    17    3.3   190     6.2   853.4    0.00 
 174   12:20   0.00   90.6    18    2.9    97     6.0   853.3    0.00 
 174   12:30   0.00   94.2    12    0.8   150     2.8   853.2    0.00 
 174   12:40   0.00   95.6    14    1.1   186     4.4   853.2    0.00 
 174   12:50   0.00   92.9    20    3.7   233     6.4   853.2    0.00 
 174   13:00   0.00   92.0    18    5.5   287    11.8   853.2    0.00 
 174   13:10   0.00   93.1    18    5.0   273    10.1   853.1    0.00 
 174   13:20   0.00   91.0    20    5.6   258    12.1   853.0    0.00 
 174   13:30   0.00   90.4    21    6.7   303    15.9   852.9    0.00 
 174   13:40   0.00   91.2    20    5.1   292     9.8   852.8    0.00 
 174   13:50   0.00   90.5    27    5.7   267    11.5   852.7    0.00 
 174   14:00   0.00   92.1    15    4.0   230     9.6   852.5    0.00 
 174   14:10   0.00   95.4    15    3.4    23    10.2   852.4    0.00 
 174   14:20   0.00   97.5     8    6.4    14    13.0   852.4    0.00 
 174   14:30   0.00   94.0    13    4.3   290    11.5   852.4    0.00 
 174   14:40   0.00   94.3    23    2.7    84     4.4   852.3    0.00 
 174   14:50   0.00   95.5    14    1.2    88     4.0   852.2    0.00 
 174   15:00   0.00   92.7    14    3.4   291     9.6   852.1    0.00 
 174   15:10   0.00   93.2    20    5.3   232     9.3   852.0    0.00 
 174   15:20   0.00   90.8    25    7.4   223    13.7   851.7    0.00 
 174   15:30   0.00   89.8    21    6.4   237    11.2   851.5    0.00 
 174   15:40   0.00   92.7    15    7.0   250    14.0   851.4    0.00 
 174   15:50   0.00   90.7    18    7.3   222    13.8   851.4    0.00 
 174   16:00   0.00   89.8    23    8.1   254    14.0   851.4    0.00 
 174   16:10   0.00   88.8    18    9.2   272    17.9   851.3    0.00 
 174   16:20   0.00   92.6    14    5.6   274    14.0   851.2    0.00 
 174   16:30   0.00   90.3    19    5.7   310    13.1   851.2    0.00 
 174   16:40   0.00   90.1    17    6.9   304    12.3   851.2    0.00 
 174   16:50   0.00   90.2    19    5.9   292     9.3   851.2    0.00 

Return to Sand Spring Valley graphs page.


Western Regional Climate Center,wrcc@dri.edu